sensor_id;sensor_type;location;lat;lon;timestamp;P1;durP1;ratioP1;P2;durP2;ratioP2
68989;SDS011;56046;47.270;11.368;2023-03-11T00:01:10;0.40;;;0.40;;
68989;SDS011;56046;47.270;11.368;2023-03-11T00:03:35;0.20;;;0.20;;
68989;SDS011;56046;47.270;11.368;2023-03-11T00:06:01;1.43;;;0.30;;
68989;SDS011;56046;47.270;11.368;2023-03-11T00:08:26;0.30;;;0.30;;
68989;SDS011;56046;47.270;11.368;2023-03-11T00:10:55;0.47;;;0.40;;
68989;SDS011;56046;47.270;11.368;2023-03-11T00:13:23;0.40;;;0.40;;
68989;SDS011;56046;47.270;11.368;2023-03-11T00:15:49;0.50;;;0.50;;
68989;SDS011;56046;47.270;11.368;2023-03-11T00:18:15;0.30;;;0.30;;
68989;SDS011;56046;47.270;11.368;2023-03-11T00:20:41;0.60;;;0.40;;
68989;SDS011;56046;47.270;11.368;2023-03-11T00:23:07;0.30;;;0.30;;
68989;SDS011;56046;47.270;11.368;2023-03-11T00:25:33;0.63;;;0.33;;
68989;SDS011;56046;47.270;11.368;2023-03-11T00:27:59;0.40;;;0.40;;
68989;SDS011;56046;47.270;11.368;2023-03-11T00:30:25;1.05;;;0.50;;
68989;SDS011;56046;47.270;11.368;2023-03-11T00:32:51;0.47;;;0.40;;
68989;SDS011;56046;47.270;11.368;2023-03-11T00:35:17;0.85;;;0.43;;
68989;SDS011;56046;47.270;11.368;2023-03-11T00:37:43;0.82;;;0.50;;
68989;SDS011;56046;47.270;11.368;2023-03-11T00:40:17;0.50;;;0.50;;
68989;SDS011;56046;47.270;11.368;2023-03-11T00:42:43;0.60;;;0.45;;
68989;SDS011;56046;47.270;11.368;2023-03-11T00:45:08;0.30;;;0.30;;
68989;SDS011;56046;47.270;11.368;2023-03-11T00:47:33;0.40;;;0.40;;
68989;SDS011;56046;47.270;11.368;2023-03-11T00:49:59;1.37;;;0.50;;
68989;SDS011;56046;47.270;11.368;2023-03-11T00:52:24;0.90;;;0.40;;
68989;SDS011;56046;47.270;11.368;2023-03-11T00:54:49;0.90;;;0.50;;
68989;SDS011;56046;47.270;11.368;2023-03-11T00:57:14;0.30;;;0.30;;
68989;SDS011;56046;47.270;11.368;2023-03-11T00:59:40;0.40;;;0.40;;
68989;SDS011;56046;47.270;11.368;2023-03-11T01:02:05;0.47;;;0.40;;
68989;SDS011;56046;47.270;11.368;2023-03-11T01:04:30;0.57;;;0.40;;
68989;SDS011;56046;47.270;11.368;2023-03-11T01:06:55;0.40;;;0.40;;
68989;SDS011;56046;47.270;11.368;2023-03-11T01:09:21;0.33;;;0.33;;
68989;SDS011;56046;47.270;11.368;2023-03-11T01:11:46;0.30;;;0.30;;
68989;SDS011;56046;47.270;11.368;2023-03-11T01:14:11;0.57;;;0.40;;
68989;SDS011;56046;47.270;11.368;2023-03-11T01:16:37;0.30;;;0.30;;
68989;SDS011;56046;47.270;11.368;2023-03-11T01:19:02;0.40;;;0.40;;
68989;SDS011;56046;47.270;11.368;2023-03-11T01:21:27;0.70;;;0.50;;
68989;SDS011;56046;47.270;11.368;2023-03-11T01:23:52;0.67;;;0.40;;
68989;SDS011;56046;47.270;11.368;2023-03-11T01:26:18;0.40;;;0.40;;
68989;SDS011;56046;47.270;11.368;2023-03-11T01:28:43;1.00;;;0.50;;
68989;SDS011;56046;47.270;11.368;2023-03-11T01:31:09;0.40;;;0.40;;
68989;SDS011;56046;47.270;11.368;2023-03-11T01:33:34;0.65;;;0.40;;
68989;SDS011;56046;47.270;11.368;2023-03-11T01:36:00;0.50;;;0.50;;
68989;SDS011;56046;47.270;11.368;2023-03-11T01:38:25;0.80;;;0.40;;
68989;SDS011;56046;47.270;11.368;2023-03-11T01:40:50;0.50;;;0.40;;
68989;SDS011;56046;47.270;11.368;2023-03-11T01:48:28;0.85;;;0.40;;
68989;SDS011;56046;47.270;11.368;2023-03-11T01:50:53;1.70;;;0.70;;
68989;SDS011;56046;47.270;11.368;2023-03-11T01:53:19;6.83;;;2.87;;
68989;SDS011;56046;47.270;11.368;2023-03-11T01:55:45;3.42;;;0.60;;
68989;SDS011;56046;47.270;11.368;2023-03-11T01:58:13;0.53;;;0.43;;
68989;SDS011;56046;47.270;11.368;2023-03-11T02:00:40;0.60;;;0.30;;
68989;SDS011;56046;47.270;11.368;2023-03-11T02:03:10;0.80;;;0.30;;
68989;SDS011;56046;47.270;11.368;2023-03-11T02:05:38;1.13;;;0.30;;
68989;SDS011;56046;47.270;11.368;2023-03-11T02:08:04;0.87;;;0.40;;
68989;SDS011;56046;47.270;11.368;2023-03-11T02:10:29;0.40;;;0.40;;
68989;SDS011;56046;47.270;11.368;2023-03-11T02:12:55;2.87;;;0.40;;
68989;SDS011;56046;47.270;11.368;2023-03-11T02:15:21;0.50;;;0.47;;
68989;SDS011;56046;47.270;11.368;2023-03-11T02:17:47;1.70;;;0.30;;
68989;SDS011;56046;47.270;11.368;2023-03-11T02:20:15;0.60;;;0.50;;
68989;SDS011;56046;47.270;11.368;2023-03-11T02:22:43;0.50;;;0.50;;
68989;SDS011;56046;47.270;11.368;2023-03-11T02:27:53;0.50;;;0.40;;
68989;SDS011;56046;47.270;11.368;2023-03-11T02:30:20;0.40;;;0.40;;
68989;SDS011;56046;47.270;11.368;2023-03-11T02:32:46;0.40;;;0.40;;
68989;SDS011;56046;47.270;11.368;2023-03-11T02:35:13;1.52;;;0.40;;
68989;SDS011;56046;47.270;11.368;2023-03-11T02:37:42;0.40;;;0.30;;
68989;SDS011;56046;47.270;11.368;2023-03-11T02:45:46;0.73;;;0.32;;
68989;SDS011;56046;47.270;11.368;2023-03-11T02:48:12;0.50;;;0.50;;
68989;SDS011;56046;47.270;11.368;2023-03-11T02:50:38;0.47;;;0.40;;
68989;SDS011;56046;47.270;11.368;2023-03-11T02:53:04;0.40;;;0.40;;
68989;SDS011;56046;47.270;11.368;2023-03-11T02:55:30;1.30;;;0.45;;
68989;SDS011;56046;47.270;11.368;2023-03-11T02:57:55;1.73;;;0.70;;
68989;SDS011;56046;47.270;11.368;2023-03-11T03:00:21;2.43;;;0.70;;
68989;SDS011;56046;47.270;11.368;2023-03-11T03:02:46;0.47;;;0.40;;
68989;SDS011;56046;47.270;11.368;2023-03-11T03:05:15;1.15;;;0.50;;
68989;SDS011;56046;47.270;11.368;2023-03-11T03:07:41;0.60;;;0.40;;
68989;SDS011;56046;47.270;11.368;2023-03-11T03:10:06;0.60;;;0.43;;
68989;SDS011;56046;47.270;11.368;2023-03-11T03:12:32;0.55;;;0.40;;
68989;SDS011;56046;47.270;11.368;2023-03-11T03:14:57;2.30;;;0.97;;
68989;SDS011;56046;47.270;11.368;2023-03-11T03:17:22;1.13;;;0.50;;
68989;SDS011;56046;47.270;11.368;2023-03-11T03:19:48;0.40;;;0.40;;
68989;SDS011;56046;47.270;11.368;2023-03-11T03:22:13;0.43;;;0.37;;
68989;SDS011;56046;47.270;11.368;2023-03-11T03:24:38;0.37;;;0.30;;
68989;SDS011;56046;47.270;11.368;2023-03-11T03:27:04;0.88;;;0.60;;
68989;SDS011;56046;47.270;11.368;2023-03-11T03:29:29;0.60;;;0.40;;
68989;SDS011;56046;47.270;11.368;2023-03-11T03:31:55;0.60;;;0.50;;
68989;SDS011;56046;47.270;11.368;2023-03-11T03:34:20;0.57;;;0.30;;
68989;SDS011;56046;47.270;11.368;2023-03-11T03:36:45;2.37;;;0.60;;
68989;SDS011;56046;47.270;11.368;2023-03-11T03:39:10;0.40;;;0.30;;
68989;SDS011;56046;47.270;11.368;2023-03-11T03:41:36;0.57;;;0.30;;
68989;SDS011;56046;47.270;11.368;2023-03-11T03:44:01;0.70;;;0.40;;
68989;SDS011;56046;47.270;11.368;2023-03-11T03:46:27;1.65;;;0.55;;
68989;SDS011;56046;47.270;11.368;2023-03-11T03:48:52;0.70;;;0.50;;
68989;SDS011;56046;47.270;11.368;2023-03-11T03:51:17;0.83;;;0.40;;
68989;SDS011;56046;47.270;11.368;2023-03-11T03:53:43;1.13;;;0.40;;
68989;SDS011;56046;47.270;11.368;2023-03-11T03:56:11;0.55;;;0.40;;
68989;SDS011;56046;47.270;11.368;2023-03-11T03:58:37;1.35;;;0.77;;
68989;SDS011;56046;47.270;11.368;2023-03-11T04:01:03;0.63;;;0.30;;
68989;SDS011;56046;47.270;11.368;2023-03-11T04:03:28;0.70;;;0.40;;
68989;SDS011;56046;47.270;11.368;2023-03-11T04:05:54;1.27;;;0.30;;
68989;SDS011;56046;47.270;11.368;2023-03-11T04:08:29;0.82;;;0.43;;
68989;SDS011;56046;47.270;11.368;2023-03-11T04:10:57;0.70;;;0.50;;
68989;SDS011;56046;47.270;11.368;2023-03-11T04:13:22;0.60;;;0.40;;
68989;SDS011;56046;47.270;11.368;2023-03-11T04:15:48;1.40;;;0.40;;
68989;SDS011;56046;47.270;11.368;2023-03-11T04:18:13;0.70;;;0.50;;
68989;SDS011;56046;47.270;11.368;2023-03-11T04:20:39;0.73;;;0.40;;
68989;SDS011;56046;47.270;11.368;2023-03-11T04:23:04;0.40;;;0.30;;
68989;SDS011;56046;47.270;11.368;2023-03-11T04:25:29;0.97;;;0.50;;
68989;SDS011;56046;47.270;11.368;2023-03-11T04:27:55;0.77;;;0.40;;
68989;SDS011;56046;47.270;11.368;2023-03-11T04:30:20;1.00;;;0.37;;
68989;SDS011;56046;47.270;11.368;2023-03-11T04:32:45;0.93;;;0.50;;
68989;SDS011;56046;47.270;11.368;2023-03-11T04:35:11;0.80;;;0.40;;
68989;SDS011;56046;47.270;11.368;2023-03-11T04:37:36;0.80;;;0.50;;
68989;SDS011;56046;47.270;11.368;2023-03-11T04:40:01;0.47;;;0.37;;
68989;SDS011;56046;47.270;11.368;2023-03-11T04:42:27;1.13;;;0.50;;
68989;SDS011;56046;47.270;11.368;2023-03-11T04:44:52;1.63;;;0.70;;
68989;SDS011;56046;47.270;11.368;2023-03-11T04:47:18;1.53;;;0.50;;
68989;SDS011;56046;47.270;11.368;2023-03-11T04:49:43;1.17;;;0.60;;
68989;SDS011;56046;47.270;11.368;2023-03-11T04:52:08;0.97;;;0.50;;
68989;SDS011;56046;47.270;11.368;2023-03-11T04:54:33;1.67;;;0.60;;
68989;SDS011;56046;47.270;11.368;2023-03-11T04:56:59;0.53;;;0.30;;
68989;SDS011;56046;47.270;11.368;2023-03-11T04:59:24;0.95;;;0.45;;
68989;SDS011;56046;47.270;11.368;2023-03-11T05:01:49;2.33;;;0.73;;
68989;SDS011;56046;47.270;11.368;2023-03-11T05:04:14;0.95;;;0.60;;
68989;SDS011;56046;47.270;11.368;2023-03-11T05:06:40;0.80;;;0.50;;
68989;SDS011;56046;47.270;11.368;2023-03-11T05:09:05;0.60;;;0.30;;
68989;SDS011;56046;47.270;11.368;2023-03-11T05:11:30;1.47;;;0.40;;
68989;SDS011;56046;47.270;11.368;2023-03-11T05:13:56;0.70;;;0.40;;
68989;SDS011;56046;47.270;11.368;2023-03-11T05:16:21;1.00;;;0.50;;
68989;SDS011;56046;47.270;11.368;2023-03-11T05:18:46;1.10;;;0.50;;
68989;SDS011;56046;47.270;11.368;2023-03-11T05:21:12;1.43;;;0.70;;
68989;SDS011;56046;47.270;11.368;2023-03-11T05:23:37;1.33;;;0.50;;
68989;SDS011;56046;47.270;11.368;2023-03-11T05:26:02;2.67;;;1.10;;
68989;SDS011;56046;47.270;11.368;2023-03-11T05:28:28;1.45;;;0.70;;
68989;SDS011;56046;47.270;11.368;2023-03-11T05:30:53;0.50;;;0.30;;
68989;SDS011;56046;47.270;11.368;2023-03-11T05:33:18;1.23;;;0.40;;
68989;SDS011;56046;47.270;11.368;2023-03-11T05:35:44;1.33;;;0.73;;
68989;SDS011;56046;47.270;11.368;2023-03-11T05:38:09;1.57;;;0.60;;
68989;SDS011;56046;47.270;11.368;2023-03-11T05:40:34;1.23;;;0.50;;
68989;SDS011;56046;47.270;11.368;2023-03-11T05:43:00;1.47;;;0.70;;
68989;SDS011;56046;47.270;11.368;2023-03-11T05:45:25;0.90;;;0.50;;
68989;SDS011;56046;47.270;11.368;2023-03-11T05:47:51;1.50;;;0.60;;
68989;SDS011;56046;47.270;11.368;2023-03-11T05:50:16;1.15;;;0.70;;
68989;SDS011;56046;47.270;11.368;2023-03-11T05:52:41;1.00;;;0.60;;
68989;SDS011;56046;47.270;11.368;2023-03-11T05:55:07;1.20;;;0.80;;
68989;SDS011;56046;47.270;11.368;2023-03-11T05:57:33;1.48;;;0.77;;
68989;SDS011;56046;47.270;11.368;2023-03-11T05:59:59;2.17;;;0.80;;
68989;SDS011;56046;47.270;11.368;2023-03-11T06:02:24;1.83;;;0.80;;
68989;SDS011;56046;47.270;11.368;2023-03-11T06:04:49;1.73;;;0.73;;
68989;SDS011;56046;47.270;11.368;2023-03-11T06:07:15;1.53;;;0.77;;
68989;SDS011;56046;47.270;11.368;2023-03-11T06:09:40;3.20;;;1.30;;
68989;SDS011;56046;47.270;11.368;2023-03-11T06:12:05;4.57;;;1.40;;
68989;SDS011;56046;47.270;11.368;2023-03-11T06:14:31;2.95;;;1.25;;
68989;SDS011;56046;47.270;11.368;2023-03-11T06:16:59;1.70;;;0.70;;
68989;SDS011;56046;47.270;11.368;2023-03-11T06:19:24;1.77;;;0.65;;
68989;SDS011;56046;47.270;11.368;2023-03-11T06:21:50;2.17;;;0.83;;
68989;SDS011;56046;47.270;11.368;2023-03-11T06:24:15;1.53;;;0.60;;
68989;SDS011;56046;47.270;11.368;2023-03-11T06:26:41;1.93;;;0.70;;
68989;SDS011;56046;47.270;11.368;2023-03-11T06:29:08;2.15;;;0.85;;
68989;SDS011;56046;47.270;11.368;2023-03-11T06:31:36;2.45;;;0.65;;
68989;SDS011;56046;47.270;11.368;2023-03-11T06:34:01;0.80;;;0.50;;
68989;SDS011;56046;47.270;11.368;2023-03-11T06:36:27;1.57;;;0.80;;
68989;SDS011;56046;47.270;11.368;2023-03-11T06:38:52;2.73;;;0.80;;
68989;SDS011;56046;47.270;11.368;2023-03-11T06:41:18;2.45;;;0.90;;
68989;SDS011;56046;47.270;11.368;2023-03-11T06:43:43;1.67;;;0.70;;
68989;SDS011;56046;47.270;11.368;2023-03-11T06:46:14;2.87;;;0.70;;
68989;SDS011;56046;47.270;11.368;2023-03-11T06:48:39;1.92;;;0.70;;
68989;SDS011;56046;47.270;11.368;2023-03-11T06:51:05;1.33;;;0.63;;
68989;SDS011;56046;47.270;11.368;2023-03-11T06:53:30;1.50;;;0.60;;
68989;SDS011;56046;47.270;11.368;2023-03-11T06:55:56;1.55;;;0.70;;
68989;SDS011;56046;47.270;11.368;2023-03-11T06:58:21;2.27;;;0.90;;
68989;SDS011;56046;47.270;11.368;2023-03-11T07:00:47;1.10;;;0.50;;
68989;SDS011;56046;47.270;11.368;2023-03-11T07:03:12;1.85;;;0.90;;
68989;SDS011;56046;47.270;11.368;2023-03-11T07:05:37;1.77;;;0.80;;
68989;SDS011;56046;47.270;11.368;2023-03-11T07:08:02;1.30;;;0.70;;
68989;SDS011;56046;47.270;11.368;2023-03-11T07:10:28;2.63;;;0.80;;
68989;SDS011;56046;47.270;11.368;2023-03-11T07:12:53;2.40;;;1.03;;
68989;SDS011;56046;47.270;11.368;2023-03-11T07:15:18;2.53;;;1.17;;
68989;SDS011;56046;47.270;11.368;2023-03-11T07:17:44;1.77;;;0.73;;
68989;SDS011;56046;47.270;11.368;2023-03-11T07:20:09;2.33;;;1.40;;
68989;SDS011;56046;47.270;11.368;2023-03-11T07:22:34;1.67;;;1.00;;
68989;SDS011;56046;47.270;11.368;2023-03-11T07:25:00;1.27;;;0.80;;
68989;SDS011;56046;47.270;11.368;2023-03-11T07:27:26;2.37;;;0.70;;
68989;SDS011;56046;47.270;11.368;2023-03-11T07:29:51;2.92;;;1.00;;
68989;SDS011;56046;47.270;11.368;2023-03-11T07:32:17;1.30;;;0.80;;
68989;SDS011;56046;47.270;11.368;2023-03-11T07:34:42;1.90;;;0.80;;
68989;SDS011;56046;47.270;11.368;2023-03-11T07:37:07;2.67;;;0.60;;
68989;SDS011;56046;47.270;11.368;2023-03-11T07:39:33;2.00;;;1.00;;
68989;SDS011;56046;47.270;11.368;2023-03-11T07:41:58;7.00;;;2.40;;
68989;SDS011;56046;47.270;11.368;2023-03-11T07:44:23;3.00;;;1.23;;
68989;SDS011;56046;47.270;11.368;2023-03-11T07:46:48;2.13;;;1.10;;
68989;SDS011;56046;47.270;11.368;2023-03-11T07:49:14;1.57;;;1.00;;
68989;SDS011;56046;47.270;11.368;2023-03-11T07:51:39;4.20;;;1.63;;
68989;SDS011;56046;47.270;11.368;2023-03-11T07:54:06;2.50;;;1.20;;
68989;SDS011;56046;47.270;11.368;2023-03-11T07:56:32;3.67;;;1.07;;
68989;SDS011;56046;47.270;11.368;2023-03-11T07:58:58;2.42;;;1.02;;
68989;SDS011;56046;47.270;11.368;2023-03-11T08:01:24;2.70;;;1.20;;
68989;SDS011;56046;47.270;11.368;2023-03-11T08:03:50;2.50;;;1.40;;
68989;SDS011;56046;47.270;11.368;2023-03-11T08:06:21;3.08;;;1.30;;
68989;SDS011;56046;47.270;11.368;2023-03-11T08:08:47;2.38;;;1.50;;
68989;SDS011;56046;47.270;11.368;2023-03-11T08:11:13;3.30;;;1.20;;
68989;SDS011;56046;47.270;11.368;2023-03-11T08:13:39;2.50;;;1.03;;
68989;SDS011;56046;47.270;11.368;2023-03-11T08:16:04;3.20;;;1.20;;
68989;SDS011;56046;47.270;11.368;2023-03-11T08:18:30;2.80;;;1.20;;
68989;SDS011;56046;47.270;11.368;2023-03-11T08:20:56;3.27;;;1.33;;
68989;SDS011;56046;47.270;11.368;2023-03-11T08:23:21;2.17;;;1.02;;
68989;SDS011;56046;47.270;11.368;2023-03-11T08:25:46;2.53;;;1.30;;
68989;SDS011;56046;47.270;11.368;2023-03-11T08:28:11;3.60;;;1.43;;
68989;SDS011;56046;47.270;11.368;2023-03-11T08:30:37;2.47;;;1.13;;
68989;SDS011;56046;47.270;11.368;2023-03-11T08:33:02;1.93;;;1.30;;
68989;SDS011;56046;47.270;11.368;2023-03-11T08:35:27;2.43;;;1.17;;
68989;SDS011;56046;47.270;11.368;2023-03-11T08:37:53;3.83;;;1.23;;
68989;SDS011;56046;47.270;11.368;2023-03-11T08:40:18;8.33;;;1.60;;
68989;SDS011;56046;47.270;11.368;2023-03-11T08:42:43;3.30;;;1.40;;
68989;SDS011;56046;47.270;11.368;2023-03-11T08:45:08;5.13;;;1.77;;
68989;SDS011;56046;47.270;11.368;2023-03-11T08:47:35;2.70;;;1.50;;
68989;SDS011;56046;47.270;11.368;2023-03-11T08:50:01;3.58;;;1.48;;
68989;SDS011;56046;47.270;11.368;2023-03-11T08:52:29;3.17;;;1.47;;
68989;SDS011;56046;47.270;11.368;2023-03-11T08:54:54;2.47;;;1.30;;
68989;SDS011;56046;47.270;11.368;2023-03-11T08:57:19;3.37;;;1.60;;
68989;SDS011;56046;47.270;11.368;2023-03-11T08:59:44;2.87;;;1.40;;
68989;SDS011;56046;47.270;11.368;2023-03-11T09:02:10;2.90;;;1.37;;
68989;SDS011;56046;47.270;11.368;2023-03-11T09:04:35;4.05;;;1.85;;
68989;SDS011;56046;47.270;11.368;2023-03-11T09:07:01;4.33;;;1.73;;
68989;SDS011;56046;47.270;11.368;2023-03-11T09:09:26;4.33;;;1.50;;
68989;SDS011;56046;47.270;11.368;2023-03-11T09:11:51;5.00;;;2.07;;
68989;SDS011;56046;47.270;11.368;2023-03-11T09:14:16;3.70;;;1.40;;
68989;SDS011;56046;47.270;11.368;2023-03-11T09:16:42;5.60;;;2.27;;
68989;SDS011;56046;47.270;11.368;2023-03-11T09:19:07;3.58;;;1.50;;
68989;SDS011;56046;47.270;11.368;2023-03-11T09:21:33;3.67;;;1.67;;
68989;SDS011;56046;47.270;11.368;2023-03-11T09:23:59;4.60;;;1.80;;
68989;SDS011;56046;47.270;11.368;2023-03-11T09:26:24;2.72;;;1.27;;
68989;SDS011;56046;47.270;11.368;2023-03-11T09:28:50;6.60;;;2.47;;
68989;SDS011;56046;47.270;11.368;2023-03-11T09:31:15;6.87;;;2.93;;
68989;SDS011;56046;47.270;11.368;2023-03-11T09:33:41;2.53;;;1.40;;
68989;SDS011;56046;47.270;11.368;2023-03-11T09:36:07;4.60;;;1.80;;
68989;SDS011;56046;47.270;11.368;2023-03-11T09:38:32;3.37;;;1.40;;
68989;SDS011;56046;47.270;11.368;2023-03-11T09:40:59;2.77;;;1.40;;
68989;SDS011;56046;47.270;11.368;2023-03-11T09:48:43;2.92;;;1.30;;
68989;SDS011;56046;47.270;11.368;2023-03-11T09:51:13;3.23;;;1.50;;
68989;SDS011;56046;47.270;11.368;2023-03-11T09:53:41;2.28;;;1.15;;
68989;SDS011;56046;47.270;11.368;2023-03-11T09:56:08;3.42;;;1.73;;
68989;SDS011;56046;47.270;11.368;2023-03-11T09:59:17;2.33;;;1.00;;
68989;SDS011;56046;47.270;11.368;2023-03-11T10:01:30;2.80;;;1.30;;
68989;SDS011;56046;47.270;11.368;2023-03-11T10:04:01;4.33;;;1.60;;
68989;SDS011;56046;47.270;11.368;2023-03-11T10:06:28;3.65;;;1.70;;
68989;SDS011;56046;47.270;11.368;2023-03-11T10:16:22;18.67;;;6.60;;
68989;SDS011;56046;47.270;11.368;2023-03-11T10:18:51;19.70;;;8.85;;
68989;SDS011;56046;47.270;11.368;2023-03-11T10:23:49;2.80;;;1.40;;
68989;SDS011;56046;47.270;11.368;2023-03-11T10:26:18;1.73;;;1.10;;
68989;SDS011;56046;47.270;11.368;2023-03-11T10:29:01;2.42;;;1.10;;
68989;SDS011;56046;47.270;11.368;2023-03-11T10:31:42;2.00;;;1.00;;
68989;SDS011;56046;47.270;11.368;2023-03-11T10:36:35;2.50;;;1.20;;
68989;SDS011;56046;47.270;11.368;2023-03-11T10:39:02;2.42;;;1.00;;
68989;SDS011;56046;47.270;11.368;2023-03-11T10:44:01;2.08;;;1.20;;
68989;SDS011;56046;47.270;11.368;2023-03-11T10:46:28;2.53;;;1.23;;
68989;SDS011;56046;47.270;11.368;2023-03-11T10:48:54;2.38;;;1.10;;
68989;SDS011;56046;47.270;11.368;2023-03-11T10:51:20;3.00;;;1.33;;
68989;SDS011;56046;47.270;11.368;2023-03-11T10:53:54;1.88;;;1.10;;
68989;SDS011;56046;47.270;11.368;2023-03-11T10:58:48;2.37;;;1.30;;
68989;SDS011;56046;47.270;11.368;2023-03-11T11:01:14;1.40;;;0.90;;
68989;SDS011;56046;47.270;11.368;2023-03-11T11:03:44;2.10;;;0.90;;
68989;SDS011;56046;47.270;11.368;2023-03-11T11:06:21;2.55;;;1.00;;
68989;SDS011;56046;47.270;11.368;2023-03-11T11:08:46;1.92;;;0.85;;
68989;SDS011;56046;47.270;11.368;2023-03-11T11:11:19;2.33;;;0.90;;
68989;SDS011;56046;47.270;11.368;2023-03-11T11:13:44;2.58;;;1.30;;
68989;SDS011;56046;47.270;11.368;2023-03-11T11:16:19;1.60;;;1.00;;
68989;SDS011;56046;47.270;11.368;2023-03-11T11:21:30;2.78;;;1.00;;
68989;SDS011;56046;47.270;11.368;2023-03-11T11:26:27;2.43;;;1.13;;
68989;SDS011;56046;47.270;11.368;2023-03-11T11:31:33;2.80;;;1.10;;
68989;SDS011;56046;47.270;11.368;2023-03-11T11:33:58;1.27;;;0.90;;
68989;SDS011;56046;47.270;11.368;2023-03-11T11:36:27;1.50;;;0.87;;
68989;SDS011;56046;47.270;11.368;2023-03-11T11:38:53;1.57;;;0.90;;
68989;SDS011;56046;47.270;11.368;2023-03-11T11:41:20;3.10;;;1.25;;
68989;SDS011;56046;47.270;11.368;2023-03-11T11:46:15;1.90;;;1.10;;
68989;SDS011;56046;47.270;11.368;2023-03-11T11:48:46;4.05;;;1.10;;
68989;SDS011;56046;47.270;11.368;2023-03-11T11:51:19;3.05;;;1.23;;
68989;SDS011;56046;47.270;11.368;2023-03-11T11:56:16;1.23;;;0.60;;
68989;SDS011;56046;47.270;11.368;2023-03-11T11:58:41;1.47;;;1.00;;
68989;SDS011;56046;47.270;11.368;2023-03-11T12:04:01;2.22;;;1.00;;
68989;SDS011;56046;47.270;11.368;2023-03-11T12:09:13;1.92;;;1.00;;
68989;SDS011;56046;47.270;11.368;2023-03-11T12:17:03;2.28;;;1.08;;
68989;SDS011;56046;47.270;11.368;2023-03-11T12:19:35;1.50;;;0.90;;
68989;SDS011;56046;47.270;11.368;2023-03-11T12:22:05;1.73;;;1.10;;
68989;SDS011;56046;47.270;11.368;2023-03-11T12:27:32;2.45;;;1.08;;
68989;SDS011;56046;47.270;11.368;2023-03-11T12:30:02;1.75;;;1.00;;
68989;SDS011;56046;47.270;11.368;2023-03-11T12:32:35;2.50;;;1.30;;
68989;SDS011;56046;47.270;11.368;2023-03-11T12:35:09;1.43;;;0.80;;
68989;SDS011;56046;47.270;11.368;2023-03-11T12:37:43;1.90;;;1.10;;
68989;SDS011;56046;47.270;11.368;2023-03-11T12:42:53;3.03;;;1.13;;
68989;SDS011;56046;47.270;11.368;2023-03-11T12:45:52;1.90;;;0.90;;
68989;SDS011;56046;47.270;11.368;2023-03-11T12:50:53;1.98;;;1.10;;
68989;SDS011;56046;47.270;11.368;2023-03-11T12:53:19;2.00;;;1.10;;
68989;SDS011;56046;47.270;11.368;2023-03-11T12:56:01;2.23;;;1.00;;
68989;SDS011;56046;47.270;11.368;2023-03-11T12:58:31;1.95;;;0.90;;
68989;SDS011;56046;47.270;11.368;2023-03-11T13:01:04;1.48;;;1.08;;
68989;SDS011;56046;47.270;11.368;2023-03-11T13:03:41;2.20;;;1.10;;
68989;SDS011;56046;47.270;11.368;2023-03-11T13:06:26;1.50;;;0.90;;
68989;SDS011;56046;47.270;11.368;2023-03-11T13:08:54;2.07;;;0.90;;
68989;SDS011;56046;47.270;11.368;2023-03-11T13:11:54;2.13;;;1.10;;
68989;SDS011;56046;47.270;11.368;2023-03-11T13:16:50;1.90;;;0.88;;
68989;SDS011;56046;47.270;11.368;2023-03-11T13:21:50;2.13;;;1.10;;
68989;SDS011;56046;47.270;11.368;2023-03-11T13:38:59;1.20;;;0.80;;
68989;SDS011;56046;47.270;11.368;2023-03-11T13:41:30;2.22;;;0.88;;
68989;SDS011;56046;47.270;11.368;2023-03-11T13:43:59;1.53;;;0.80;;
68989;SDS011;56046;47.270;11.368;2023-03-11T13:46:44;1.85;;;1.05;;
68989;SDS011;56046;47.270;11.368;2023-03-11T13:51:40;2.50;;;0.97;;
68989;SDS011;56046;47.270;11.368;2023-03-11T13:56:45;1.48;;;0.90;;
68989;SDS011;56046;47.270;11.368;2023-03-11T13:59:23;1.47;;;0.90;;
68989;SDS011;56046;47.270;11.368;2023-03-11T14:01:49;1.65;;;0.90;;
68989;SDS011;56046;47.270;11.368;2023-03-11T14:04:17;1.98;;;0.95;;
68989;SDS011;56046;47.270;11.368;2023-03-11T14:06:42;2.72;;;0.80;;
68989;SDS011;56046;47.270;11.368;2023-03-11T14:09:14;0.70;;;0.60;;
68989;SDS011;56046;47.270;11.368;2023-03-11T14:11:41;1.58;;;0.70;;
68989;SDS011;56046;47.270;11.368;2023-03-11T14:17:14;1.60;;;0.87;;
68989;SDS011;56046;47.270;11.368;2023-03-11T14:19:41;1.35;;;0.70;;
68989;SDS011;56046;47.270;11.368;2023-03-11T14:22:07;1.38;;;0.63;;
68989;SDS011;56046;47.270;11.368;2023-03-11T14:24:33;1.95;;;0.98;;
68989;SDS011;56046;47.270;11.368;2023-03-11T14:26:59;1.30;;;0.80;;
68989;SDS011;56046;47.270;11.368;2023-03-11T14:31:51;1.50;;;0.80;;
68989;SDS011;56046;47.270;11.368;2023-03-11T14:34:20;1.57;;;0.73;;
68989;SDS011;56046;47.270;11.368;2023-03-11T14:36:49;2.20;;;0.77;;
68989;SDS011;56046;47.270;11.368;2023-03-11T14:41:47;2.97;;;0.88;;
68989;SDS011;56046;47.270;11.368;2023-03-11T14:44:12;1.77;;;0.68;;
68989;SDS011;56046;47.270;11.368;2023-03-11T14:46:38;1.50;;;0.70;;
68989;SDS011;56046;47.270;11.368;2023-03-11T14:49:03;1.17;;;0.53;;
68989;SDS011;56046;47.270;11.368;2023-03-11T14:51:31;2.20;;;0.88;;
68989;SDS011;56046;47.270;11.368;2023-03-11T14:54:03;1.20;;;0.73;;
68989;SDS011;56046;47.270;11.368;2023-03-11T14:56:30;1.95;;;0.70;;
68989;SDS011;56046;47.270;11.368;2023-03-11T14:59:03;1.00;;;0.70;;
68989;SDS011;56046;47.270;11.368;2023-03-11T15:01:32;1.58;;;0.90;;
68989;SDS011;56046;47.270;11.368;2023-03-11T15:04:22;1.80;;;0.80;;
68989;SDS011;56046;47.270;11.368;2023-03-11T15:06:47;2.65;;;0.70;;
68989;SDS011;56046;47.270;11.368;2023-03-11T15:09:14;4.15;;;0.93;;
68989;SDS011;56046;47.270;11.368;2023-03-11T15:14:15;2.85;;;0.80;;
68989;SDS011;56046;47.270;11.368;2023-03-11T15:16:41;1.30;;;0.63;;
68989;SDS011;56046;47.270;11.368;2023-03-11T15:21:51;3.15;;;0.70;;
68989;SDS011;56046;47.270;11.368;2023-03-11T15:24:21;1.77;;;0.70;;
68989;SDS011;56046;47.270;11.368;2023-03-11T15:27:06;1.30;;;0.80;;
68989;SDS011;56046;47.270;11.368;2023-03-11T15:29:32;1.50;;;0.70;;
68989;SDS011;56046;47.270;11.368;2023-03-11T15:31:58;1.35;;;0.60;;
68989;SDS011;56046;47.270;11.368;2023-03-11T15:39:19;2.10;;;0.60;;
68989;SDS011;56046;47.270;11.368;2023-03-11T15:41:46;1.58;;;0.70;;
68989;SDS011;56046;47.270;11.368;2023-03-11T15:46:52;1.92;;;0.90;;
68989;SDS011;56046;47.270;11.368;2023-03-11T15:49:18;2.17;;;0.80;;
68989;SDS011;56046;47.270;11.368;2023-03-11T15:51:44;2.58;;;1.20;;
68989;SDS011;56046;47.270;11.368;2023-03-11T15:54:09;3.63;;;1.10;;
68989;SDS011;56046;47.270;11.368;2023-03-11T15:56:35;2.83;;;1.20;;
68989;SDS011;56046;47.270;11.368;2023-03-11T15:59:00;3.07;;;1.07;;
68989;SDS011;56046;47.270;11.368;2023-03-11T16:01:25;3.05;;;1.20;;
68989;SDS011;56046;47.270;11.368;2023-03-11T16:03:53;1.20;;;0.70;;
68989;SDS011;56046;47.270;11.368;2023-03-11T16:06:18;3.45;;;1.35;;
68989;SDS011;56046;47.270;11.368;2023-03-11T16:08:44;11.70;;;5.37;;
68989;SDS011;56046;47.270;11.368;2023-03-11T16:11:11;7.83;;;4.10;;
68989;SDS011;56046;47.270;11.368;2023-03-11T16:13:36;11.80;;;5.43;;
68989;SDS011;56046;47.270;11.368;2023-03-11T16:16:02;4.30;;;2.07;;
68989;SDS011;56046;47.270;11.368;2023-03-11T16:18:27;3.07;;;1.60;;
68989;SDS011;56046;47.270;11.368;2023-03-11T16:20:53;5.70;;;2.22;;
68989;SDS011;56046;47.270;11.368;2023-03-11T16:23:20;2.78;;;1.20;;
68989;SDS011;56046;47.270;11.368;2023-03-11T16:25:46;2.63;;;1.30;;